sensor_id;sensor_type;location;lat;lon;timestamp;pressure;altitude;pressure_sealevel;temperature;humidity
60258;BME280;46115;44.484;11.314;2023-02-12T00:02:53;101989.44;;;4.27;44.64
60258;BME280;46115;44.484;11.314;2023-02-12T00:06:55;101975.44;;;4.16;45.45
60258;BME280;46115;44.484;11.314;2023-02-12T00:11:06;101982.41;;;3.94;46.35
60258;BME280;46115;44.484;11.314;2023-02-12T00:15:09;101977.97;;;3.76;47.11
60258;BME280;46115;44.484;11.314;2023-02-12T00:19:11;101960.44;;;3.44;47.09
60258;BME280;46115;44.484;11.314;2023-02-12T00:23:13;101973.56;;;3.54;47.50
60258;BME280;46115;44.484;11.314;2023-02-12T00:27:17;101979.59;;;3.40;47.68
60258;BME280;46115;44.484;11.314;2023-02-12T00:31:22;101983.91;;;3.35;47.77
60258;BME280;46115;44.484;11.314;2023-02-12T00:35:24;101991.78;;;3.40;47.83
60258;BME280;46115;44.484;11.314;2023-02-12T00:39:27;101982.28;;;3.53;48.14
60258;BME280;46115;44.484;11.314;2023-02-12T00:43:30;101986.63;;;3.51;46.40
60258;BME280;46115;44.484;11.314;2023-02-12T00:47:34;101980.53;;;3.50;47.54
60258;BME280;46115;44.484;11.314;2023-02-12T00:51:36;101968.34;;;3.64;46.76
60258;BME280;46115;44.484;11.314;2023-02-12T00:55:39;101974.41;;;3.50;46.47
60258;BME280;46115;44.484;11.314;2023-02-12T00:59:42;101973.50;;;3.41;47.80
60258;BME280;46115;44.484;11.314;2023-02-12T01:03:44;101987.41;;;3.33;46.91
60258;BME280;46115;44.484;11.314;2023-02-12T01:07:48;101993.50;;;3.36;48.04
60258;BME280;46115;44.484;11.314;2023-02-12T01:11:50;101978.78;;;3.49;46.98
60258;BME280;46115;44.484;11.314;2023-02-12T01:16:08;101981.31;;;3.38;46.65
60258;BME280;46115;44.484;11.314;2023-02-12T01:20:14;101976.13;;;3.44;47.13
60258;BME280;46115;44.484;11.314;2023-02-12T01:24:17;101984.88;;;3.53;46.50
60258;BME280;46115;44.484;11.314;2023-02-12T01:28:19;101972.69;;;3.56;46.18
60258;BME280;46115;44.484;11.314;2023-02-12T01:32:23;101977.03;;;3.50;46.36
60258;BME280;46115;44.484;11.314;2023-02-12T01:36:27;101948.16;;;3.28;46.88
60258;BME280;46115;44.484;11.314;2023-02-12T01:40:30;101965.63;;;3.40;47.05
60258;BME280;46115;44.484;11.314;2023-02-12T01:44:33;101962.97;;;3.23;47.14
60258;BME280;46115;44.484;11.314;2023-02-12T01:48:40;101946.41;;;3.26;47.49
60258;BME280;46115;44.484;11.314;2023-02-12T01:52:45;101941.16;;;3.15;47.53
60258;BME280;46115;44.484;11.314;2023-02-12T01:56:49;101938.56;;;3.20;47.73
60258;BME280;46115;44.484;11.314;2023-02-12T02:00:51;101929.88;;;3.30;47.55
60258;BME280;46115;44.484;11.314;2023-02-12T02:04:58;101937.75;;;3.34;47.50
60258;BME280;46115;44.484;11.314;2023-02-12T02:09:03;101937.75;;;3.37;47.30
60258;BME280;46115;44.484;11.314;2023-02-12T02:13:07;101940.31;;;3.25;46.86
60258;BME280;46115;44.484;11.314;2023-02-12T02:17:42;101937.69;;;3.19;47.35
60258;BME280;46115;44.484;11.314;2023-02-12T02:22:01;101934.13;;;3.11;47.34
60258;BME280;46115;44.484;11.314;2023-02-12T02:30:54;101909.72;;;3.01;47.34
60258;BME280;46115;44.484;11.314;2023-02-12T02:35:03;101948.13;;;3.13;47.90
60258;BME280;46115;44.484;11.314;2023-02-12T02:39:15;101936.72;;;3.05;47.88
60258;BME280;46115;44.484;11.314;2023-02-12T02:43:22;101935.00;;;3.08;46.96
60258;BME280;46115;44.484;11.314;2023-02-12T02:47:32;101929.81;;;3.13;47.25
60258;BME280;46115;44.484;11.314;2023-02-12T02:51:40;101925.38;;;3.01;47.06
60258;BME280;46115;44.484;11.314;2023-02-12T02:55:46;101926.22;;;2.96;47.96
60258;BME280;46115;44.484;11.314;2023-02-12T02:59:54;101914.00;;;2.89;47.42
60258;BME280;46115;44.484;11.314;2023-02-12T03:04:02;101913.16;;;2.93;47.54
60258;BME280;46115;44.484;11.314;2023-02-12T03:08:10;101913.13;;;2.85;47.87
60258;BME280;46115;44.484;11.314;2023-02-12T03:12:17;101908.75;;;2.83;47.72
60258;BME280;46115;44.484;11.314;2023-02-12T03:16:23;101899.13;;;2.75;48.31
60258;BME280;46115;44.484;11.314;2023-02-12T03:20:31;101906.16;;;2.89;48.57
60258;BME280;46115;44.484;11.314;2023-02-12T03:24:40;101908.81;;;2.95;47.21
60258;BME280;46115;44.484;11.314;2023-02-12T03:28:44;101914.94;;;3.00;47.30
60258;BME280;46115;44.484;11.314;2023-02-12T03:32:54;101895.72;;;2.89;47.72
60258;BME280;46115;44.484;11.314;2023-02-12T03:37:05;101900.16;;;3.05;47.23
60258;BME280;46115;44.484;11.314;2023-02-12T03:41:13;101883.50;;;2.85;47.48
60258;BME280;46115;44.484;11.314;2023-02-12T03:45:28;101918.41;;;3.02;47.00
60258;BME280;46115;44.484;11.314;2023-02-12T03:49:37;101921.88;;;2.98;46.99
60258;BME280;46115;44.484;11.314;2023-02-12T03:53:44;101926.16;;;2.82;47.54
60258;BME280;46115;44.484;11.314;2023-02-12T03:57:50;101913.06;;;2.77;47.45
60258;BME280;46115;44.484;11.314;2023-02-12T04:01:57;101912.16;;;2.72;48.04
60258;BME280;46115;44.484;11.314;2023-02-12T04:06:00;101911.28;;;2.73;48.70
60258;BME280;46115;44.484;11.314;2023-02-12T04:10:05;101888.63;;;2.69;47.77
60258;BME280;46115;44.484;11.314;2023-02-12T04:14:16;101890.38;;;2.70;47.90
60258;BME280;46115;44.484;11.314;2023-02-12T04:18:22;101888.63;;;2.66;48.26
60258;BME280;46115;44.484;11.314;2023-02-12T04:22:38;101876.34;;;2.47;48.96
60258;BME280;46115;44.484;11.314;2023-02-12T04:26:51;101875.47;;;2.46;48.64
60258;BME280;46115;44.484;11.314;2023-02-12T04:30:59;101865.91;;;2.50;48.36
60258;BME280;46115;44.484;11.314;2023-02-12T04:35:12;101881.59;;;2.53;48.17
60258;BME280;46115;44.484;11.314;2023-02-12T04:39:22;101876.38;;;2.56;47.59
60258;BME280;46115;44.484;11.314;2023-02-12T04:43:29;101880.75;;;2.57;48.14
60258;BME280;46115;44.484;11.314;2023-02-12T04:47:32;101871.25;;;2.71;47.83
60258;BME280;46115;44.484;11.314;2023-02-12T04:51:34;101866.84;;;2.64;47.49
60258;BME280;46115;44.484;11.314;2023-02-12T04:55:37;101879.03;;;2.62;47.91
60258;BME280;46115;44.484;11.314;2023-02-12T04:59:40;101874.69;;;2.67;48.27
60258;BME280;46115;44.484;11.314;2023-02-12T05:03:43;101886.91;;;2.71;47.33
60258;BME280;46115;44.484;11.314;2023-02-12T05:07:45;101899.09;;;2.72;47.25
60258;BME280;46115;44.484;11.314;2023-02-12T05:11:48;101914.75;;;2.69;47.98
60258;BME280;46115;44.484;11.314;2023-02-12T05:15:51;101911.19;;;2.58;47.65
60258;BME280;46115;44.484;11.314;2023-02-12T05:19:54;101912.13;;;2.69;47.12
60258;BME280;46115;44.484;11.314;2023-02-12T05:23:56;101924.31;;;2.70;47.20
60258;BME280;46115;44.484;11.314;2023-02-12T05:27:58;101913.88;;;2.70;47.06
60258;BME280;46115;44.484;11.314;2023-02-12T05:32:02;101906.88;;;2.60;47.53
60258;BME280;46115;44.484;11.314;2023-02-12T05:36:07;101909.47;;;2.59;47.93
60258;BME280;46115;44.484;11.314;2023-02-12T05:40:10;101912.00;;;2.45;47.91
60258;BME280;46115;44.484;11.314;2023-02-12T05:44:13;101903.22;;;2.41;48.45
60258;BME280;46115;44.484;11.314;2023-02-12T05:48:16;101898.94;;;2.46;48.22
60258;BME280;46115;44.484;11.314;2023-02-12T05:52:19;101894.47;;;2.32;48.31
60258;BME280;46115;44.484;11.314;2023-02-12T05:56:23;101874.44;;;2.28;48.07
60258;BME280;46115;44.484;11.314;2023-02-12T06:00:26;101871.84;;;2.31;48.40
60258;BME280;46115;44.484;11.314;2023-02-12T06:04:30;101883.19;;;2.37;47.85
60258;BME280;46115;44.484;11.314;2023-02-12T06:08:33;101877.22;;;2.50;47.46
60258;BME280;46115;44.484;11.314;2023-02-12T06:12:35;101892.88;;;2.49;47.45
60258;BME280;46115;44.484;11.314;2023-02-12T06:16:37;101893.75;;;2.49;47.36
60258;BME280;46115;44.484;11.314;2023-02-12T06:20:41;101890.19;;;2.40;47.71
60258;BME280;46115;44.484;11.314;2023-02-12T06:24:43;101899.00;;;2.56;47.74
60258;BME280;46115;44.484;11.314;2023-02-12T06:28:46;101905.91;;;2.46;47.82
60258;BME280;46115;44.484;11.314;2023-02-12T06:32:49;101912.78;;;2.36;48.06
60258;BME280;46115;44.484;11.314;2023-02-12T06:36:52;101926.72;;;2.40;47.79
60258;BME280;46115;44.484;11.314;2023-02-12T06:40:55;101946.81;;;2.47;47.77
60258;BME280;46115;44.484;11.314;2023-02-12T06:44:57;101957.28;;;2.52;47.31
60258;BME280;46115;44.484;11.314;2023-02-12T06:49:00;101965.09;;;2.50;48.40
60258;BME280;46115;44.484;11.314;2023-02-12T06:53:03;101955.53;;;2.50;48.10
60258;BME280;46115;44.484;11.314;2023-02-12T06:57:06;101953.78;;;2.49;48.41
60258;BME280;46115;44.484;11.314;2023-02-12T07:01:11;101953.69;;;2.42;48.11
60258;BME280;46115;44.484;11.314;2023-02-12T07:05:15;101962.47;;;2.45;48.67
60258;BME280;46115;44.484;11.314;2023-02-12T07:09:18;101964.31;;;2.60;47.84
60258;BME280;46115;44.484;11.314;2023-02-12T07:13:21;101957.38;;;2.64;47.70
60258;BME280;46115;44.484;11.314;2023-02-12T07:17:23;101960.13;;;2.82;47.42
60258;BME280;46115;44.484;11.314;2023-02-12T07:21:25;101968.97;;;3.07;46.21
60258;BME280;46115;44.484;11.314;2023-02-12T07:25:29;101988.38;;;3.58;44.74
60258;BME280;46115;44.484;11.314;2023-02-12T07:29:31;101990.31;;;4.84;43.32
60258;BME280;46115;44.484;11.314;2023-02-12T07:33:34;101989.38;;;5.24;42.26
60258;BME280;46115;44.484;11.314;2023-02-12T07:37:36;101990.03;;;5.78;40.81
60258;BME280;46115;44.484;11.314;2023-02-12T07:41:39;102002.66;;;6.62;40.18
60258;BME280;46115;44.484;11.314;2023-02-12T07:45:42;101995.78;;;7.36;37.57
60258;BME280;46115;44.484;11.314;2023-02-12T07:49:44;101997.13;;;8.86;35.21
60258;BME280;46115;44.484;11.314;2023-02-12T07:53:47;101995.25;;;8.93;34.01
60258;BME280;46115;44.484;11.314;2023-02-12T07:57:50;101993.91;;;9.63;33.17
60258;BME280;46115;44.484;11.314;2023-02-12T08:01:53;101976.75;;;9.42;33.22
60258;BME280;46115;44.484;11.314;2023-02-12T08:05:56;101989.56;;;9.60;33.20
60258;BME280;46115;44.484;11.314;2023-02-12T08:09:58;101988.44;;;11.50;30.11
60258;BME280;46115;44.484;11.314;2023-02-12T08:14:03;101996.41;;;11.48;29.64
60258;BME280;46115;44.484;11.314;2023-02-12T08:18:05;102006.16;;;10.06;34.10
60258;BME280;46115;44.484;11.314;2023-02-12T08:22:07;102013.44;;;10.36;34.04
60258;BME280;46115;44.484;11.314;2023-02-12T08:26:10;102026.34;;;11.52;33.04
60258;BME280;46115;44.484;11.314;2023-02-12T08:30:14;102036.25;;;11.44;30.51
60258;BME280;46115;44.484;11.314;2023-02-12T08:34:18;102039.63;;;12.11;29.47
60258;BME280;46115;44.484;11.314;2023-02-12T08:38:20;102046.38;;;12.77;30.88
60258;BME280;46115;44.484;11.314;2023-02-12T08:42:22;102063.06;;;13.33;29.04
60258;BME280;46115;44.484;11.314;2023-02-12T08:46:28;102063.44;;;14.41;28.36
60258;BME280;46115;44.484;11.314;2023-02-12T08:50:31;102063.47;;;16.62;25.18
60258;BME280;46115;44.484;11.314;2023-02-12T08:54:34;102063.06;;;16.52;24.25
60258;BME280;46115;44.484;11.314;2023-02-12T08:58:37;102057.06;;;17.19;23.55
60258;BME280;46115;44.484;11.314;2023-02-12T09:02:41;102058.19;;;20.65;20.98
60258;BME280;46115;44.484;11.314;2023-02-12T09:06:44;102042.25;;;20.21;21.05
60258;BME280;46115;44.484;11.314;2023-02-12T09:10:46;102045.16;;;20.86;20.82
60258;BME280;46115;44.484;11.314;2023-02-12T09:14:48;102047.44;;;20.24;20.95
60258;BME280;46115;44.484;11.314;2023-02-12T09:18:53;102045.75;;;20.77;20.45
60258;BME280;46115;44.484;11.314;2023-02-12T09:22:57;102046.75;;;21.28;20.46
60258;BME280;46115;44.484;11.314;2023-02-12T09:26:59;102050.63;;;21.75;19.58
60258;BME280;46115;44.484;11.314;2023-02-12T09:31:04;102044.44;;;22.84;20.07
60258;BME280;46115;44.484;11.314;2023-02-12T09:35:08;102042.88;;;22.08;20.09
60258;BME280;46115;44.484;11.314;2023-02-12T09:39:12;102042.75;;;22.47;19.57
60258;BME280;46115;44.484;11.314;2023-02-12T09:43:17;102018.44;;;22.35;19.39
60258;BME280;46115;44.484;11.314;2023-02-12T09:47:25;102055.06;;;21.25;20.09
60258;BME280;46115;44.484;11.314;2023-02-12T09:51:31;102061.28;;;20.59;20.68
60258;BME280;46115;44.484;11.314;2023-02-12T09:55:34;102059.28;;;18.27;23.85
60258;BME280;46115;44.484;11.314;2023-02-12T09:59:41;102067.66;;;17.21;24.28
60258;BME280;46115;44.484;11.314;2023-02-12T10:03:45;102074.06;;;16.63;26.58
60258;BME280;46115;44.484;11.314;2023-02-12T10:08:24;102082.72;;;16.87;26.77
60258;BME280;46115;44.484;11.314;2023-02-12T10:12:33;102080.16;;;15.91;27.22
60258;BME280;46115;44.484;11.314;2023-02-12T10:16:44;102074.84;;;15.51;28.21
60258;BME280;46115;44.484;11.314;2023-02-12T10:21:10;102085.66;;;15.27;29.35
60258;BME280;46115;44.484;11.314;2023-02-12T10:25:23;102074.25;;;15.24;29.63
60258;BME280;46115;44.484;11.314;2023-02-12T10:29:30;102066.94;;;14.87;31.25
60258;BME280;46115;44.484;11.314;2023-02-12T10:33:36;102065.91;;;14.69;31.71
60258;BME280;46115;44.484;11.314;2023-02-12T10:37:44;102048.19;;;14.46;32.09
60258;BME280;46115;44.484;11.314;2023-02-12T10:41:55;102047.81;;;14.10;31.22
60258;BME280;46115;44.484;11.314;2023-02-12T10:46:00;102046.44;;;14.00;31.87
60258;BME280;46115;44.484;11.314;2023-02-12T10:50:07;102056.19;;;14.46;31.90
60258;BME280;46115;44.484;11.314;2023-02-12T10:54:32;102049.72;;;13.60;33.10
60258;BME280;46115;44.484;11.314;2023-02-12T10:58:36;102057.25;;;13.72;34.10
60258;BME280;46115;44.484;11.314;2023-02-12T11:02:59;102054.91;;;13.88;33.47
60258;BME280;46115;44.484;11.314;2023-02-12T11:07:04;102022.84;;;13.44;34.15
60258;BME280;46115;44.484;11.314;2023-02-12T11:11:09;102030.75;;;13.46;32.72
60258;BME280;46115;44.484;11.314;2023-02-12T11:15:16;102032.88;;;13.61;33.31
60258;BME280;46115;44.484;11.314;2023-02-12T11:19:22;102035.84;;;13.52;34.05
60258;BME280;46115;44.484;11.314;2023-02-12T11:23:26;102036.63;;;13.30;34.43
60258;BME280;46115;44.484;11.314;2023-02-12T11:27:30;102036.44;;;13.60;33.97
60258;BME280;46115;44.484;11.314;2023-02-12T11:31:34;102028.59;;;13.57;34.11
60258;BME280;46115;44.484;11.314;2023-02-12T11:35:47;102029.75;;;13.25;34.19
60258;BME280;46115;44.484;11.314;2023-02-12T11:39:50;102026.47;;;13.41;33.99
60258;BME280;46115;44.484;11.314;2023-02-12T11:43:52;102026.44;;;13.17;35.29
60258;BME280;46115;44.484;11.314;2023-02-12T11:47:56;102024.97;;;13.08;34.83
60258;BME280;46115;44.484;11.314;2023-02-12T11:52:01;102029.03;;;12.93;34.83
60258;BME280;46115;44.484;11.314;2023-02-12T11:56:05;102022.97;;;13.15;34.70
60258;BME280;46115;44.484;11.314;2023-02-12T12:00:14;102030.34;;;13.06;34.29
60258;BME280;46115;44.484;11.314;2023-02-12T12:04:26;102022.63;;;12.99;35.59
60258;BME280;46115;44.484;11.314;2023-02-12T12:08:36;102021.41;;;13.09;35.14
60258;BME280;46115;44.484;11.314;2023-02-12T12:12:44;102030.00;;;12.91;32.28
60258;BME280;46115;44.484;11.314;2023-02-12T12:16:53;102022.59;;;13.00;32.62
60258;BME280;46115;44.484;11.314;2023-02-12T12:21:23;101998.88;;;12.69;32.22
60258;BME280;46115;44.484;11.314;2023-02-12T12:25:30;102027.69;;;12.80;32.26
60258;BME280;46115;44.484;11.314;2023-02-12T12:29:43;102030.91;;;12.63;31.88
60258;BME280;46115;44.484;11.314;2023-02-12T12:33:51;102021.94;;;12.94;30.68
60258;BME280;46115;44.484;11.314;2023-02-12T12:38:01;102010.09;;;12.77;32.41
60258;BME280;46115;44.484;11.314;2023-02-12T12:47:01;102020.38;;;12.88;31.33
60258;BME280;46115;44.484;11.314;2023-02-12T12:51:16;102004.38;;;12.63;31.69
60258;BME280;46115;44.484;11.314;2023-02-12T12:55:36;102015.81;;;12.65;31.31
60258;BME280;46115;44.484;11.314;2023-02-12T13:00:15;102003.69;;;12.85;31.75
60258;BME280;46115;44.484;11.314;2023-02-12T13:04:31;102003.63;;;12.86;31.21
60258;BME280;46115;44.484;11.314;2023-02-12T13:08:51;102005.19;;;12.65;32.05
60258;BME280;46115;44.484;11.314;2023-02-12T13:13:08;102005.59;;;12.79;32.23
60258;BME280;46115;44.484;11.314;2023-02-12T13:17:21;102002.91;;;12.55;32.59
60258;BME280;46115;44.484;11.314;2023-02-12T13:21:35;101998.59;;;12.77;32.60
60258;BME280;46115;44.484;11.314;2023-02-12T13:25:48;102005.25;;;12.64;33.48
60258;BME280;46115;44.484;11.314;2023-02-12T13:30:00;102003.44;;;12.38;34.58
60258;BME280;46115;44.484;11.314;2023-02-12T13:34:06;102009.63;;;12.65;33.70
60258;BME280;46115;44.484;11.314;2023-02-12T13:38:18;102003.53;;;12.63;34.69
60258;BME280;46115;44.484;11.314;2023-02-12T13:42:42;101997.28;;;12.64;35.73
60258;BME280;46115;44.484;11.314;2023-02-12T13:46:54;102003.56;;;12.61;35.57
60258;BME280;46115;44.484;11.314;2023-02-12T13:51:04;101974.25;;;12.38;35.33
60258;BME280;46115;44.484;11.314;2023-02-12T13:55:20;101984.91;;;12.64;34.88
60258;BME280;46115;44.484;11.314;2023-02-12T13:59:39;102011.31;;;12.94;34.40
60258;BME280;46115;44.484;11.314;2023-02-12T14:03:43;102010.28;;;12.71;35.28
60258;BME280;46115;44.484;11.314;2023-02-12T14:07:47;101990.66;;;12.51;34.84
60258;BME280;46115;44.484;11.314;2023-02-12T14:11:52;102007.09;;;12.62;34.13
60258;BME280;46115;44.484;11.314;2023-02-12T14:15:55;101998.44;;;12.29;35.84
60258;BME280;46115;44.484;11.314;2023-02-12T14:20:06;102005.44;;;12.31;36.16
60258;BME280;46115;44.484;11.314;2023-02-12T14:28:53;101996.09;;;12.20;36.05
60258;BME280;46115;44.484;11.314;2023-02-12T14:33:19;101993.53;;;12.16;36.49
60258;BME280;46115;44.484;11.314;2023-02-12T14:37:35;101997.97;;;11.86;37.14
60258;BME280;46115;44.484;11.314;2023-02-12T14:41:38;101968.69;;;11.60;37.52
60258;BME280;46115;44.484;11.314;2023-02-12T14:45:41;102000.50;;;11.91;37.18
60258;BME280;46115;44.484;11.314;2023-02-12T14:49:44;101997.66;;;11.66;37.77
60258;BME280;46115;44.484;11.314;2023-02-12T14:53:49;102006.59;;;11.62;38.05
60258;BME280;46115;44.484;11.314;2023-02-12T14:57:58;102014.41;;;11.67;38.16
60258;BME280;46115;44.484;11.314;2023-02-12T15:02:03;102008.72;;;11.82;38.53
60258;BME280;46115;44.484;11.314;2023-02-12T15:06:10;102022.13;;;11.43;37.98
60258;BME280;46115;44.484;11.314;2023-02-12T15:10:17;102015.78;;;11.50;37.83
60258;BME280;46115;44.484;11.314;2023-02-12T15:14:22;102023.50;;;11.58;37.61
60258;BME280;46115;44.484;11.314;2023-02-12T15:18:28;102021.41;;;11.38;37.36
60258;BME280;46115;44.484;11.314;2023-02-12T15:22:38;102031.03;;;11.41;37.24
60258;BME280;46115;44.484;11.314;2023-02-12T15:26:46;102041.84;;;11.33;37.96
60258;BME280;46115;44.484;11.314;2023-02-12T15:30:50;102037.63;;;11.26;37.60
60258;BME280;46115;44.484;11.314;2023-02-12T15:34:55;102015.78;;;11.18;37.83
60258;BME280;46115;44.484;11.314;2023-02-12T15:38:59;102043.47;;;11.05;38.93
60258;BME280;46115;44.484;11.314;2023-02-12T15:43:05;102051.06;;;11.18;38.58
60258;BME280;46115;44.484;11.314;2023-02-12T15:47:13;102040.44;;;10.86;38.92
60258;BME280;46115;44.484;11.314;2023-02-12T15:51:20;102045.75;;;10.86;38.23
60258;BME280;46115;44.484;11.314;2023-02-12T15:55:28;102030.03;;;10.80;38.72
60258;BME280;46115;44.484;11.314;2023-02-12T15:59:35;102043.41;;;10.72;39.00
60258;BME280;46115;44.484;11.314;2023-02-12T16:03:39;102050.81;;;10.58;39.80
60258;BME280;46115;44.484;11.314;2023-02-12T16:07:42;102042.94;;;10.56;41.05
60258;BME280;46115;44.484;11.314;2023-02-12T16:11:46;102056.91;;;10.61;41.14
60258;BME280;46115;44.484;11.314;2023-02-12T16:16:05;102044.94;;;10.47;41.96
60258;BME280;46115;44.484;11.314;2023-02-12T16:20:21;102049.84;;;10.25;42.22
60258;BME280;46115;44.484;11.314;2023-02-12T16:24:27;102062.28;;;10.18;42.51
60258;BME280;46115;44.484;11.314;2023-02-12T16:28:31;102064.06;;;10.18;43.21
60258;BME280;46115;44.484;11.314;2023-02-12T16:32:37;102072.06;;;10.15;42.90
60258;BME280;46115;44.484;11.314;2023-02-12T16:36:45;102072.38;;;9.99;43.19
60258;BME280;46115;44.484;11.314;2023-02-12T16:45:39;102085.28;;;9.72;43.95
60258;BME280;46115;44.484;11.314;2023-02-12T16:49:52;102062.72;;;9.55;44.44
60258;BME280;46115;44.484;11.314;2023-02-12T16:53:56;102093.19;;;9.73;44.71
60258;BME280;46115;44.484;11.314;2023-02-12T16:57:59;102095.81;;;9.73;44.33
60258;BME280;46115;44.484;11.314;2023-02-12T17:02:04;102101.34;;;9.59;45.44
60258;BME280;46115;44.484;11.314;2023-02-12T23:06:23;102369.59;;;5.26;56.57
60258;BME280;46115;44.484;11.314;2023-02-12T23:10:25;102373.16;;;5.57;56.06
60258;BME280;46115;44.484;11.314;2023-02-12T23:14:28;102367.06;;;5.67;56.00
60258;BME280;46115;44.484;11.314;2023-02-12T23:18:30;102372.28;;;5.56;56.54
60258;BME280;46115;44.484;11.314;2023-02-12T23:22:34;102371.38;;;5.53;56.34
60258;BME280;46115;44.484;11.314;2023-02-12T23:26:37;102382.75;;;5.49;56.22
60258;BME280;46115;44.484;11.314;2023-02-12T23:30:39;102390.63;;;5.50;56.71
60258;BME280;46115;44.484;11.314;2023-02-12T23:34:41;102384.47;;;5.44;56.60
60258;BME280;46115;44.484;11.314;2023-02-12T23:38:45;102375.72;;;5.42;56.77
60258;BME280;46115;44.484;11.314;2023-02-12T23:42:47;102384.50;;;5.50;56.20
60258;BME280;46115;44.484;11.314;2023-02-12T23:46:49;102388.00;;;5.52;56.39
60258;BME280;46115;44.484;11.314;2023-02-12T23:50:53;102383.66;;;5.55;56.64
60258;BME280;46115;44.484;11.314;2023-02-12T23:54:57;102391.50;;;5.54;56.53
60258;BME280;46115;44.484;11.314;2023-02-12T23:58:59;102386.28;;;5.63;57.20
